Skip Navigation LinksHome page > Weather > Current weather Skip Navigation Links

Current Weather

Ben-Gurion Intl Apt, Tel Aviv, Israel

For information only: do not use for flight planning or navigation.
Latest weather
Observation time Tuesday, July 28, 2015 10:50 AM IDT
Local time Tuesday, July 28, 2015 11:19 AM IDT
Flight conditions Visual Meteorological Conditions
Winds
Wind direction variable
Wind speed 3 mph
Visibility 6.2 mi.
Sky condition
Ceiling unlimited
Cloud layer few clouds 3,000 ft.
Temperature 86°F
Dewpoint 70°F
Altimeter 29.71 in.Hg
Derived measurements
Relative humidity 59%
Heat index 91°F
Density altitude 2460 ft.
Remarks
No significant changes expected in the next two hours.
METAR LLBG 280750Z VRB03KT 9999 FEW030 30/21 Q1006 NOSIG

Settings

Location code

InnerDrive.Weather 4.0.5567.0 Release CLR 4.0.30319.34014
Copyright ©2015 Inner Drive Technology. All rights reserved. Portions Copyright ©1986-2015 David Braverman.

Find weather

Site navigation


Skip Navigation Links

Place info

Page info

PayPal - The safer, easier way to pay online!

Return home.

Copyright ©2015 Inner Drive Technology. Purveyors of fine, hand-crafted computer software. Page printed 2015-07-28T08:19:54 UTC.